sensor_id;sensor_type;location;lat;lon;timestamp;P1;durP1;ratioP1;P2;durP2;ratioP2
22080;SDS011;11207;59.512;18.050;2022-11-15T00:00:44;2.30;;;2.20;;
22080;SDS011;11207;59.512;18.050;2022-11-15T00:03:10;2.50;;;2.30;;
22080;SDS011;11207;59.512;18.050;2022-11-15T00:05:39;2.07;;;1.97;;
22080;SDS011;11207;59.512;18.050;2022-11-15T00:08:04;2.00;;;1.90;;
22080;SDS011;11207;59.512;18.050;2022-11-15T00:10:30;2.20;;;2.03;;
22080;SDS011;11207;59.512;18.050;2022-11-15T00:12:55;2.20;;;2.10;;
22080;SDS011;11207;59.512;18.050;2022-11-15T00:15:21;2.10;;;2.00;;
22080;SDS011;11207;59.512;18.050;2022-11-15T00:17:50;2.03;;;1.93;;
22080;SDS011;11207;59.512;18.050;2022-11-15T00:20:19;2.40;;;2.30;;
22080;SDS011;11207;59.512;18.050;2022-11-15T00:22:44;2.30;;;2.10;;
22080;SDS011;11207;59.512;18.050;2022-11-15T00:25:10;2.33;;;2.13;;
22080;SDS011;11207;59.512;18.050;2022-11-15T00:27:35;2.27;;;2.07;;
22080;SDS011;11207;59.512;18.050;2022-11-15T00:30:01;2.00;;;1.90;;
22080;SDS011;11207;59.512;18.050;2022-11-15T00:32:30;1.90;;;1.80;;
22080;SDS011;11207;59.512;18.050;2022-11-15T00:34:57;2.00;;;1.90;;
22080;SDS011;11207;59.512;18.050;2022-11-15T00:37:22;1.60;;;1.60;;
22080;SDS011;11207;59.512;18.050;2022-11-15T00:39:48;1.70;;;1.70;;
22080;SDS011;11207;59.512;18.050;2022-11-15T00:42:13;2.03;;;1.90;;
22080;SDS011;11207;59.512;18.050;2022-11-15T00:44:39;1.90;;;1.80;;
22080;SDS011;11207;59.512;18.050;2022-11-15T00:47:05;1.97;;;1.87;;
22080;SDS011;11207;59.512;18.050;2022-11-15T00:49:30;2.30;;;2.10;;
22080;SDS011;11207;59.512;18.050;2022-11-15T00:51:56;2.00;;;1.90;;
22080;SDS011;11207;59.512;18.050;2022-11-15T00:54:21;2.50;;;2.20;;
22080;SDS011;11207;59.512;18.050;2022-11-15T00:56:47;1.93;;;1.83;;
22080;SDS011;11207;59.512;18.050;2022-11-15T00:59:12;3.43;;;2.10;;
22080;SDS011;11207;59.512;18.050;2022-11-15T01:01:38;2.20;;;2.10;;
22080;SDS011;11207;59.512;18.050;2022-11-15T01:04:04;2.03;;;1.93;;
22080;SDS011;11207;59.512;18.050;2022-11-15T01:06:29;2.30;;;2.20;;
22080;SDS011;11207;59.512;18.050;2022-11-15T01:08:55;2.10;;;2.00;;
22080;SDS011;11207;59.512;18.050;2022-11-15T01:11:20;2.20;;;2.10;;
22080;SDS011;11207;59.512;18.050;2022-11-15T01:13:46;2.33;;;2.23;;
22080;SDS011;11207;59.512;18.050;2022-11-15T01:16:13;3.70;;;2.63;;
22080;SDS011;11207;59.512;18.050;2022-11-15T01:18:40;3.50;;;2.67;;
22080;SDS011;11207;59.512;18.050;2022-11-15T01:21:07;3.40;;;2.33;;
22080;SDS011;11207;59.512;18.050;2022-11-15T01:23:34;4.43;;;2.47;;
22080;SDS011;11207;59.512;18.050;2022-11-15T01:26:00;3.10;;;2.80;;
22080;SDS011;11207;59.512;18.050;2022-11-15T01:28:31;2.80;;;2.60;;
22080;SDS011;11207;59.512;18.050;2022-11-15T01:31:01;2.70;;;2.50;;
22080;SDS011;11207;59.512;18.050;2022-11-15T01:33:29;2.90;;;2.70;;
22080;SDS011;11207;59.512;18.050;2022-11-15T01:35:55;3.10;;;2.90;;
22080;SDS011;11207;59.512;18.050;2022-11-15T01:38:21;3.30;;;2.87;;
22080;SDS011;11207;59.512;18.050;2022-11-15T01:40:47;3.70;;;3.40;;
22080;SDS011;11207;59.512;18.050;2022-11-15T01:43:24;2.80;;;2.60;;
22080;SDS011;11207;59.512;18.050;2022-11-15T01:45:51;3.00;;;2.80;;
22080;SDS011;11207;59.512;18.050;2022-11-15T01:48:21;3.13;;;2.80;;
22080;SDS011;11207;59.512;18.050;2022-11-15T01:50:57;2.80;;;2.60;;
22080;SDS011;11207;59.512;18.050;2022-11-15T01:53:24;2.53;;;2.40;;
22080;SDS011;11207;59.512;18.050;2022-11-15T01:55:51;2.93;;;2.73;;
22080;SDS011;11207;59.512;18.050;2022-11-15T01:58:17;3.10;;;2.90;;
22080;SDS011;11207;59.512;18.050;2022-11-15T02:00:43;2.60;;;2.43;;
22080;SDS011;11207;59.512;18.050;2022-11-15T02:03:09;2.50;;;2.40;;
22080;SDS011;11207;59.512;18.050;2022-11-15T02:05:35;3.90;;;2.70;;
22080;SDS011;11207;59.512;18.050;2022-11-15T02:08:02;2.80;;;2.60;;
22080;SDS011;11207;59.512;18.050;2022-11-15T02:10:28;2.87;;;2.67;;
22080;SDS011;11207;59.512;18.050;2022-11-15T02:12:54;2.63;;;2.43;;
22080;SDS011;11207;59.512;18.050;2022-11-15T02:15:21;2.67;;;2.50;;
22080;SDS011;11207;59.512;18.050;2022-11-15T02:18:02;2.60;;;2.50;;
22080;SDS011;11207;59.512;18.050;2022-11-15T02:29:42;3.13;;;2.47;;
22080;SDS011;11207;59.512;18.050;2022-11-15T02:35:16;2.73;;;2.53;;
22080;SDS011;11207;59.512;18.050;2022-11-15T02:37:47;2.80;;;2.60;;
22080;SDS011;11207;59.512;18.050;2022-11-15T02:43:11;2.60;;;2.50;;
22080;SDS011;11207;59.512;18.050;2022-11-15T02:46:08;2.40;;;2.30;;
22080;SDS011;11207;59.512;18.050;2022-11-15T02:48:35;2.70;;;2.50;;
22080;SDS011;11207;59.512;18.050;2022-11-15T02:51:01;3.20;;;2.60;;
22080;SDS011;11207;59.512;18.050;2022-11-15T02:53:27;2.60;;;2.40;;
22080;SDS011;11207;59.512;18.050;2022-11-15T02:55:53;2.90;;;2.70;;
22080;SDS011;11207;59.512;18.050;2022-11-15T03:01:26;3.40;;;3.10;;
22080;SDS011;11207;59.512;18.050;2022-11-15T03:04:08;3.00;;;2.80;;
22080;SDS011;11207;59.512;18.050;2022-11-15T03:09:19;3.10;;;2.90;;
22080;SDS011;11207;59.512;18.050;2022-11-15T03:12:22;5.10;;;3.50;;
22080;SDS011;11207;59.512;18.050;2022-11-15T03:15:00;3.00;;;2.80;;
22080;SDS011;11207;59.512;18.050;2022-11-15T03:17:38;4.13;;;3.83;;
22080;SDS011;11207;59.512;18.050;2022-11-15T03:20:10;3.83;;;3.53;;
22080;SDS011;11207;59.512;18.050;2022-11-15T03:22:41;3.40;;;3.10;;
22080;SDS011;11207;59.512;18.050;2022-11-15T03:25:10;3.40;;;3.17;;
22080;SDS011;11207;59.512;18.050;2022-11-15T03:27:42;3.60;;;3.30;;
22080;SDS011;11207;59.512;18.050;2022-11-15T03:30:11;3.47;;;3.17;;
22080;SDS011;11207;59.512;18.050;2022-11-15T03:32:39;3.60;;;3.30;;
22080;SDS011;11207;59.512;18.050;2022-11-15T03:35:10;3.30;;;3.10;;
22080;SDS011;11207;59.512;18.050;2022-11-15T03:37:55;3.70;;;3.40;;
22080;SDS011;11207;59.512;18.050;2022-11-15T03:40:42;3.50;;;3.20;;
22080;SDS011;11207;59.512;18.050;2022-11-15T03:45:52;3.33;;;3.03;;
22080;SDS011;11207;59.512;18.050;2022-11-15T03:48:24;3.67;;;3.10;;
22080;SDS011;11207;59.512;18.050;2022-11-15T03:50:53;3.30;;;3.10;;
22080;SDS011;11207;59.512;18.050;2022-11-15T03:53:19;2.87;;;2.67;;
22080;SDS011;11207;59.512;18.050;2022-11-15T03:55:45;2.90;;;2.70;;
22080;SDS011;11207;59.512;18.050;2022-11-15T03:58:10;3.00;;;2.80;;
22080;SDS011;11207;59.512;18.050;2022-11-15T04:00:36;3.10;;;2.90;;
22080;SDS011;11207;59.512;18.050;2022-11-15T04:03:02;3.13;;;2.90;;
22080;SDS011;11207;59.512;18.050;2022-11-15T04:05:27;4.07;;;3.00;;
22080;SDS011;11207;59.512;18.050;2022-11-15T04:07:53;3.17;;;2.97;;
22080;SDS011;11207;59.512;18.050;2022-11-15T04:10:18;3.10;;;2.90;;
22080;SDS011;11207;59.512;18.050;2022-11-15T04:12:45;3.57;;;3.00;;
22080;SDS011;11207;59.512;18.050;2022-11-15T04:15:15;3.07;;;2.87;;
22080;SDS011;11207;59.512;18.050;2022-11-15T04:20:31;3.70;;;3.40;;
22080;SDS011;11207;59.512;18.050;2022-11-15T04:23:19;3.13;;;2.93;;
22080;SDS011;11207;59.512;18.050;2022-11-15T04:26:06;3.73;;;3.43;;
22080;SDS011;11207;59.512;18.050;2022-11-15T04:28:33;3.60;;;3.30;;
22080;SDS011;11207;59.512;18.050;2022-11-15T04:30:59;3.57;;;3.27;;
22080;SDS011;11207;59.512;18.050;2022-11-15T04:33:24;3.20;;;3.00;;
22080;SDS011;11207;59.512;18.050;2022-11-15T04:35:50;3.60;;;3.07;;
22080;SDS011;11207;59.512;18.050;2022-11-15T04:38:35;4.07;;;3.40;;
22080;SDS011;11207;59.512;18.050;2022-11-15T04:41:02;3.50;;;3.03;;
22080;SDS011;11207;59.512;18.050;2022-11-15T04:43:28;3.10;;;2.90;;
22080;SDS011;11207;59.512;18.050;2022-11-15T04:45:54;3.10;;;2.90;;
22080;SDS011;11207;59.512;18.050;2022-11-15T04:48:20;4.03;;;3.27;;
22080;SDS011;11207;59.512;18.050;2022-11-15T04:50:47;3.23;;;2.97;;
22080;SDS011;11207;59.512;18.050;2022-11-15T04:53:13;3.20;;;3.00;;
22080;SDS011;11207;59.512;18.050;2022-11-15T04:55:39;3.63;;;3.00;;
22080;SDS011;11207;59.512;18.050;2022-11-15T04:58:05;3.00;;;2.80;;
22080;SDS011;11207;59.512;18.050;2022-11-15T05:00:30;3.50;;;3.13;;
22080;SDS011;11207;59.512;18.050;2022-11-15T05:02:56;3.40;;;3.00;;
22080;SDS011;11207;59.512;18.050;2022-11-15T05:05:41;3.87;;;3.20;;
22080;SDS011;11207;59.512;18.050;2022-11-15T05:08:06;3.57;;;3.27;;
22080;SDS011;11207;59.512;18.050;2022-11-15T05:10:32;5.10;;;3.00;;
22080;SDS011;11207;59.512;18.050;2022-11-15T05:12:58;3.63;;;3.33;;
22080;SDS011;11207;59.512;18.050;2022-11-15T05:15:23;3.47;;;3.17;;
22080;SDS011;11207;59.512;18.050;2022-11-15T05:17:49;3.60;;;3.30;;
22080;SDS011;11207;59.512;18.050;2022-11-15T05:20:15;3.57;;;3.20;;
22080;SDS011;11207;59.512;18.050;2022-11-15T05:22:40;3.53;;;3.20;;
22080;SDS011;11207;59.512;18.050;2022-11-15T05:25:06;3.37;;;3.07;;
22080;SDS011;11207;59.512;18.050;2022-11-15T05:27:33;3.53;;;3.03;;
22080;SDS011;11207;59.512;18.050;2022-11-15T05:29:59;5.07;;;3.10;;
22080;SDS011;11207;59.512;18.050;2022-11-15T05:32:25;3.50;;;3.20;;
22080;SDS011;11207;59.512;18.050;2022-11-15T05:34:51;3.50;;;3.20;;
22080;SDS011;11207;59.512;18.050;2022-11-15T05:37:17;4.20;;;3.10;;
22080;SDS011;11207;59.512;18.050;2022-11-15T05:39:43;3.47;;;3.10;;
22080;SDS011;11207;59.512;18.050;2022-11-15T05:42:09;2.70;;;2.50;;
22080;SDS011;11207;59.512;18.050;2022-11-15T05:44:38;3.40;;;2.90;;
22080;SDS011;11207;59.512;18.050;2022-11-15T05:47:05;4.80;;;3.10;;
22080;SDS011;11207;59.512;18.050;2022-11-15T05:49:35;7.90;;;3.03;;
22080;SDS011;11207;59.512;18.050;2022-11-15T05:52:03;6.20;;;3.20;;
22080;SDS011;11207;59.512;18.050;2022-11-15T05:54:31;5.03;;;2.70;;
22080;SDS011;11207;59.512;18.050;2022-11-15T05:56:58;6.60;;;2.90;;
22080;SDS011;11207;59.512;18.050;2022-11-15T05:59:25;3.60;;;2.80;;
22080;SDS011;11207;59.512;18.050;2022-11-15T06:01:52;3.50;;;2.83;;
22080;SDS011;11207;59.512;18.050;2022-11-15T06:04:18;4.57;;;2.47;;
22080;SDS011;11207;59.512;18.050;2022-11-15T06:06:43;3.17;;;2.40;;
22080;SDS011;11207;59.512;18.050;2022-11-15T06:09:09;2.50;;;2.30;;
22080;SDS011;11207;59.512;18.050;2022-11-15T06:11:35;6.90;;;3.03;;
22080;SDS011;11207;59.512;18.050;2022-11-15T06:14:00;2.50;;;2.30;;
22080;SDS011;11207;59.512;18.050;2022-11-15T06:16:26;4.00;;;2.53;;
22080;SDS011;11207;59.512;18.050;2022-11-15T06:18:52;3.77;;;2.60;;
22080;SDS011;11207;59.512;18.050;2022-11-15T06:21:17;3.63;;;2.63;;
22080;SDS011;11207;59.512;18.050;2022-11-15T06:23:43;2.80;;;2.60;;
22080;SDS011;11207;59.512;18.050;2022-11-15T06:26:08;3.10;;;2.80;;
22080;SDS011;11207;59.512;18.050;2022-11-15T06:28:34;6.63;;;3.00;;
22080;SDS011;11207;59.512;18.050;2022-11-15T06:31:04;6.30;;;2.70;;
22080;SDS011;11207;59.512;18.050;2022-11-15T06:33:30;5.03;;;2.57;;
22080;SDS011;11207;59.512;18.050;2022-11-15T06:35:59;5.47;;;2.40;;
22080;SDS011;11207;59.512;18.050;2022-11-15T06:38:29;4.30;;;2.90;;
22080;SDS011;11207;59.512;18.050;2022-11-15T06:40:55;3.13;;;2.60;;
22080;SDS011;11207;59.512;18.050;2022-11-15T06:43:26;5.23;;;2.53;;
22080;SDS011;11207;59.512;18.050;2022-11-15T06:45:51;3.00;;;2.30;;
22080;SDS011;11207;59.512;18.050;2022-11-15T06:48:17;4.47;;;2.67;;
22080;SDS011;11207;59.512;18.050;2022-11-15T06:50:42;3.83;;;2.40;;
22080;SDS011;11207;59.512;18.050;2022-11-15T06:53:14;2.60;;;2.40;;
22080;SDS011;11207;59.512;18.050;2022-11-15T06:55:40;3.27;;;2.70;;
22080;SDS011;11207;59.512;18.050;2022-11-15T06:58:06;4.07;;;2.53;;
22080;SDS011;11207;59.512;18.050;2022-11-15T07:00:31;4.50;;;2.87;;
22080;SDS011;11207;59.512;18.050;2022-11-15T07:02:59;4.37;;;2.73;;
22080;SDS011;11207;59.512;18.050;2022-11-15T07:05:25;4.20;;;2.60;;
22080;SDS011;11207;59.512;18.050;2022-11-15T07:07:52;2.67;;;2.47;;
22080;SDS011;11207;59.512;18.050;2022-11-15T07:10:18;5.23;;;2.87;;
22080;SDS011;11207;59.512;18.050;2022-11-15T07:12:48;2.83;;;2.27;;
22080;SDS011;11207;59.512;18.050;2022-11-15T07:15:14;4.53;;;2.60;;
22080;SDS011;11207;59.512;18.050;2022-11-15T07:17:41;3.63;;;2.43;;
22080;SDS011;11207;59.512;18.050;2022-11-15T07:20:07;3.60;;;2.50;;
22080;SDS011;11207;59.512;18.050;2022-11-15T07:22:33;4.13;;;2.63;;
22080;SDS011;11207;59.512;18.050;2022-11-15T07:24:58;3.67;;;2.60;;
22080;SDS011;11207;59.512;18.050;2022-11-15T07:27:24;3.53;;;2.83;;
22080;SDS011;11207;59.512;18.050;2022-11-15T07:29:50;2.70;;;2.40;;
22080;SDS011;11207;59.512;18.050;2022-11-15T07:32:16;3.67;;;2.73;;
22080;SDS011;11207;59.512;18.050;2022-11-15T07:34:41;3.83;;;2.53;;
22080;SDS011;11207;59.512;18.050;2022-11-15T07:37:07;4.73;;;2.67;;
22080;SDS011;11207;59.512;18.050;2022-11-15T07:39:34;4.00;;;2.70;;
22080;SDS011;11207;59.512;18.050;2022-11-15T07:41:59;4.47;;;2.53;;
22080;SDS011;11207;59.512;18.050;2022-11-15T07:44:44;4.13;;;2.77;;
22080;SDS011;11207;59.512;18.050;2022-11-15T07:47:10;3.53;;;2.40;;
22080;SDS011;11207;59.512;18.050;2022-11-15T07:49:35;3.53;;;2.70;;
22080;SDS011;11207;59.512;18.050;2022-11-15T07:52:01;2.80;;;2.43;;
22080;SDS011;11207;59.512;18.050;2022-11-15T07:54:26;4.27;;;2.70;;
22080;SDS011;11207;59.512;18.050;2022-11-15T07:56:52;5.17;;;2.83;;
22080;SDS011;11207;59.512;18.050;2022-11-15T07:59:18;5.97;;;2.80;;
22080;SDS011;11207;59.512;18.050;2022-11-15T08:01:44;3.83;;;2.50;;
22080;SDS011;11207;59.512;18.050;2022-11-15T08:04:10;5.50;;;2.50;;
22080;SDS011;11207;59.512;18.050;2022-11-15T08:06:36;3.93;;;2.80;;
22080;SDS011;11207;59.512;18.050;2022-11-15T08:09:02;4.93;;;2.50;;
22080;SDS011;11207;59.512;18.050;2022-11-15T08:11:28;4.00;;;2.57;;
22080;SDS011;11207;59.512;18.050;2022-11-15T08:13:54;3.33;;;2.60;;
22080;SDS011;11207;59.512;18.050;2022-11-15T08:16:20;3.17;;;2.50;;
22080;SDS011;11207;59.512;18.050;2022-11-15T08:18:45;2.50;;;2.30;;
22080;SDS011;11207;59.512;18.050;2022-11-15T08:21:12;3.50;;;2.50;;
22080;SDS011;11207;59.512;18.050;2022-11-15T08:23:42;3.73;;;2.53;;
22080;SDS011;11207;59.512;18.050;2022-11-15T08:26:08;5.33;;;2.30;;
22080;SDS011;11207;59.512;18.050;2022-11-15T08:29:00;5.27;;;2.67;;
22080;SDS011;11207;59.512;18.050;2022-11-15T08:31:25;3.40;;;2.47;;
22080;SDS011;11207;59.512;18.050;2022-11-15T08:33:51;5.30;;;2.60;;
22080;SDS011;11207;59.512;18.050;2022-11-15T08:36:17;3.30;;;2.47;;
22080;SDS011;11207;59.512;18.050;2022-11-15T08:38:42;3.17;;;2.40;;
22080;SDS011;11207;59.512;18.050;2022-11-15T08:41:31;5.60;;;2.33;;
22080;SDS011;11207;59.512;18.050;2022-11-15T08:43:58;3.67;;;2.53;;
22080;SDS011;11207;59.512;18.050;2022-11-15T08:46:24;3.00;;;2.50;;
22080;SDS011;11207;59.512;18.050;2022-11-15T08:48:50;3.20;;;2.40;;
22080;SDS011;11207;59.512;18.050;2022-11-15T08:51:15;2.50;;;2.30;;
22080;SDS011;11207;59.512;18.050;2022-11-15T08:53:41;2.37;;;2.20;;
22080;SDS011;11207;59.512;18.050;2022-11-15T08:56:08;3.10;;;2.40;;
22080;SDS011;11207;59.512;18.050;2022-11-15T08:58:35;2.90;;;2.20;;
22080;SDS011;11207;59.512;18.050;2022-11-15T09:01:02;2.90;;;2.40;;
22080;SDS011;11207;59.512;18.050;2022-11-15T09:03:28;2.33;;;2.13;;
22080;SDS011;11207;59.512;18.050;2022-11-15T09:05:54;2.40;;;2.20;;
22080;SDS011;11207;59.512;18.050;2022-11-15T09:08:20;2.50;;;2.30;;
22080;SDS011;11207;59.512;18.050;2022-11-15T09:10:46;5.93;;;2.47;;
22080;SDS011;11207;59.512;18.050;2022-11-15T09:13:12;2.80;;;2.37;;
22080;SDS011;11207;59.512;18.050;2022-11-15T09:15:38;3.37;;;2.30;;
22080;SDS011;11207;59.512;18.050;2022-11-15T09:18:07;3.03;;;2.23;;
22080;SDS011;11207;59.512;18.050;2022-11-15T09:20:33;2.80;;;2.40;;
22080;SDS011;11207;59.512;18.050;2022-11-15T09:22:59;2.93;;;2.30;;
22080;SDS011;11207;59.512;18.050;2022-11-15T09:25:26;2.53;;;2.10;;
22080;SDS011;11207;59.512;18.050;2022-11-15T09:27:52;5.33;;;2.40;;
22080;SDS011;11207;59.512;18.050;2022-11-15T09:30:18;2.33;;;2.20;;
22080;SDS011;11207;59.512;18.050;2022-11-15T09:32:45;2.53;;;2.27;;
22080;SDS011;11207;59.512;18.050;2022-11-15T09:35:11;2.57;;;2.20;;
22080;SDS011;11207;59.512;18.050;2022-11-15T09:37:37;2.43;;;2.10;;
22080;SDS011;11207;59.512;18.050;2022-11-15T09:40:02;2.40;;;2.17;;
22080;SDS011;11207;59.512;18.050;2022-11-15T09:48:08;2.57;;;2.13;;
22080;SDS011;11207;59.512;18.050;2022-11-15T09:50:40;2.10;;;2.00;;
22080;SDS011;11207;59.512;18.050;2022-11-15T09:53:12;2.47;;;2.27;;
22080;SDS011;11207;59.512;18.050;2022-11-15T10:01:16;2.30;;;2.10;;
22080;SDS011;11207;59.512;18.050;2022-11-15T10:03:59;3.13;;;2.17;;
22080;SDS011;11207;59.512;18.050;2022-11-15T10:06:25;3.20;;;2.30;;
22080;SDS011;11207;59.512;18.050;2022-11-15T10:09:00;4.90;;;2.97;;
22080;SDS011;11207;59.512;18.050;2022-11-15T10:11:32;2.53;;;2.10;;
22080;SDS011;11207;59.512;18.050;2022-11-15T10:14:18;3.97;;;2.20;;
22080;SDS011;11207;59.512;18.050;2022-11-15T10:25:00;2.50;;;2.30;;
22080;SDS011;11207;59.512;18.050;2022-11-15T10:27:40;2.37;;;2.20;;
22080;SDS011;11207;59.512;18.050;2022-11-15T10:30:15;4.40;;;2.70;;
22080;SDS011;11207;59.512;18.050;2022-11-15T10:32:42;2.73;;;2.33;;
22080;SDS011;11207;59.512;18.050;2022-11-15T10:35:43;2.50;;;2.30;;
22080;SDS011;11207;59.512;18.050;2022-11-15T10:38:09;3.87;;;2.60;;
22080;SDS011;11207;59.512;18.050;2022-11-15T10:40:36;4.07;;;2.63;;
22080;SDS011;11207;59.512;18.050;2022-11-15T10:43:04;2.40;;;2.30;;
22080;SDS011;11207;59.512;18.050;2022-11-15T10:45:43;3.47;;;2.40;;
22080;SDS011;11207;59.512;18.050;2022-11-15T10:50:42;3.23;;;2.43;;
22080;SDS011;11207;59.512;18.050;2022-11-15T10:53:21;3.70;;;2.20;;
22080;SDS011;11207;59.512;18.050;2022-11-15T10:56:13;2.60;;;2.40;;
22080;SDS011;11207;59.512;18.050;2022-11-15T10:58:50;5.43;;;2.30;;
22080;SDS011;11207;59.512;18.050;2022-11-15T11:01:25;5.00;;;2.77;;
22080;SDS011;11207;59.512;18.050;2022-11-15T11:04:02;2.60;;;2.40;;
22080;SDS011;11207;59.512;18.050;2022-11-15T11:06:31;4.73;;;2.50;;
22080;SDS011;11207;59.512;18.050;2022-11-15T11:09:27;4.67;;;2.67;;
22080;SDS011;11207;59.512;18.050;2022-11-15T11:11:57;3.30;;;2.60;;
22080;SDS011;11207;59.512;18.050;2022-11-15T11:14:24;2.70;;;2.50;;
22080;SDS011;11207;59.512;18.050;2022-11-15T11:22:21;4.10;;;2.37;;
22080;SDS011;11207;59.512;18.050;2022-11-15T11:25:36;3.03;;;2.33;;
22080;SDS011;11207;59.512;18.050;2022-11-15T11:27:58;3.17;;;2.37;;
22080;SDS011;11207;59.512;18.050;2022-11-15T11:33:05;2.83;;;2.53;;
22080;SDS011;11207;59.512;18.050;2022-11-15T11:44:19;5.73;;;2.60;;
22080;SDS011;11207;59.512;18.050;2022-11-15T12:01:29;2.90;;;2.30;;
22080;SDS011;11207;59.512;18.050;2022-11-15T12:15:10;2.83;;;2.53;;
22080;SDS011;11207;59.512;18.050;2022-11-15T12:17:36;2.60;;;2.40;;
22080;SDS011;11207;59.512;18.050;2022-11-15T12:20:04;4.10;;;2.40;;
22080;SDS011;11207;59.512;18.050;2022-11-15T12:22:42;4.43;;;2.50;;
22080;SDS011;11207;59.512;18.050;2022-11-15T12:25:24;2.67;;;2.47;;
22080;SDS011;11207;59.512;18.050;2022-11-15T12:28:14;3.57;;;2.70;;
22080;SDS011;11207;59.512;18.050;2022-11-15T12:30:45;2.83;;;2.40;;
22080;SDS011;11207;59.512;18.050;2022-11-15T12:33:37;2.50;;;2.30;;
22080;SDS011;11207;59.512;18.050;2022-11-15T12:36:09;2.87;;;2.60;;
22080;SDS011;11207;59.512;18.050;2022-11-15T12:41:19;4.17;;;2.50;;
22080;SDS011;11207;59.512;18.050;2022-11-15T12:43:47;2.97;;;2.70;;
22080;SDS011;11207;59.512;18.050;2022-11-15T12:46:21;2.30;;;2.20;;
22080;SDS011;11207;59.512;18.050;2022-11-15T12:48:53;2.73;;;2.40;;
22080;SDS011;11207;59.512;18.050;2022-11-15T12:52:03;2.47;;;2.27;;
22080;SDS011;11207;59.512;18.050;2022-11-15T13:02:30;5.67;;;2.60;;
22080;SDS011;11207;59.512;18.050;2022-11-15T13:17:42;2.93;;;2.27;;
22080;SDS011;11207;59.512;18.050;2022-11-15T13:22:41;5.10;;;2.83;;
22080;SDS011;11207;59.512;18.050;2022-11-15T13:27:53;4.60;;;2.40;;
22080;SDS011;11207;59.512;18.050;2022-11-15T13:30:23;4.17;;;2.40;;
22080;SDS011;11207;59.512;18.050;2022-11-15T13:32:51;5.97;;;2.40;;
22080;SDS011;11207;59.512;18.050;2022-11-15T13:35:19;2.90;;;2.53;;
22080;SDS011;11207;59.512;18.050;2022-11-15T13:37:53;3.33;;;2.70;;
22080;SDS011;11207;59.512;18.050;2022-11-15T13:40:22;3.10;;;2.50;;
22080;SDS011;11207;59.512;18.050;2022-11-15T13:42:52;4.73;;;2.80;;
22080;SDS011;11207;59.512;18.050;2022-11-15T13:45:18;4.00;;;2.80;;
22080;SDS011;11207;59.512;18.050;2022-11-15T13:47:44;5.33;;;2.50;;
22080;SDS011;11207;59.512;18.050;2022-11-15T13:50:16;4.07;;;2.70;;
22080;SDS011;11207;59.512;18.050;2022-11-15T13:52:43;2.73;;;2.30;;
22080;SDS011;11207;59.512;18.050;2022-11-15T13:55:14;3.20;;;2.40;;
22080;SDS011;11207;59.512;18.050;2022-11-15T13:57:44;3.23;;;2.43;;
22080;SDS011;11207;59.512;18.050;2022-11-15T14:00:27;3.10;;;2.40;;
22080;SDS011;11207;59.512;18.050;2022-11-15T14:03:05;2.80;;;2.60;;
22080;SDS011;11207;59.512;18.050;2022-11-15T14:06:03;3.17;;;2.60;;
22080;SDS011;11207;59.512;18.050;2022-11-15T14:08:37;2.67;;;2.47;;
22080;SDS011;11207;59.512;18.050;2022-11-15T14:11:12;3.97;;;2.63;;
22080;SDS011;11207;59.512;18.050;2022-11-15T14:13:40;4.50;;;2.83;;
22080;SDS011;11207;59.512;18.050;2022-11-15T14:16:13;3.43;;;2.40;;
22080;SDS011;11207;59.512;18.050;2022-11-15T14:18:44;3.63;;;2.70;;
22080;SDS011;11207;59.512;18.050;2022-11-15T14:21:10;2.90;;;2.70;;
22080;SDS011;11207;59.512;18.050;2022-11-15T14:23:36;3.10;;;2.77;;
22080;SDS011;11207;59.512;18.050;2022-11-15T14:26:02;2.70;;;2.50;;
22080;SDS011;11207;59.512;18.050;2022-11-15T14:28:29;3.83;;;2.60;;
22080;SDS011;11207;59.512;18.050;2022-11-15T14:30:58;5.43;;;2.43;;
22080;SDS011;11207;59.512;18.050;2022-11-15T14:36:17;3.83;;;2.67;;
22080;SDS011;11207;59.512;18.050;2022-11-15T14:38:44;2.77;;;2.57;;
22080;SDS011;11207;59.512;18.050;2022-11-15T14:43:44;5.40;;;2.70;;
22080;SDS011;11207;59.512;18.050;2022-11-15T14:46:09;4.63;;;2.50;;
22080;SDS011;11207;59.512;18.050;2022-11-15T14:48:35;3.97;;;2.47;;
22080;SDS011;11207;59.512;18.050;2022-11-15T14:51:01;2.67;;;2.47;;
22080;SDS011;11207;59.512;18.050;2022-11-15T14:53:27;2.60;;;2.40;;
22080;SDS011;11207;59.512;18.050;2022-11-15T14:55:53;3.27;;;2.50;;
22080;SDS011;11207;59.512;18.050;2022-11-15T14:58:18;4.63;;;2.77;;
22080;SDS011;11207;59.512;18.050;2022-11-15T15:00:44;2.97;;;2.77;;
22080;SDS011;11207;59.512;18.050;2022-11-15T15:03:09;3.07;;;2.77;;
22080;SDS011;11207;59.512;18.050;2022-11-15T15:08:01;3.17;;;2.60;;
22080;SDS011;11207;59.512;18.050;2022-11-15T15:10:27;5.43;;;2.80;;
22080;SDS011;11207;59.512;18.050;2022-11-15T15:12:56;3.07;;;2.33;;
22080;SDS011;11207;59.512;18.050;2022-11-15T15:15:24;5.07;;;2.47;;
22080;SDS011;11207;59.512;18.050;2022-11-15T15:17:51;3.77;;;2.23;;
22080;SDS011;11207;59.512;18.050;2022-11-15T15:20:17;2.83;;;2.57;;
22080;SDS011;11207;59.512;18.050;2022-11-15T15:22:43;3.90;;;2.40;;
22080;SDS011;11207;59.512;18.050;2022-11-15T15:27:47;2.50;;;2.30;;
22080;SDS011;11207;59.512;18.050;2022-11-15T15:30:13;3.93;;;2.50;;
22080;SDS011;11207;59.512;18.050;2022-11-15T15:32:39;2.60;;;2.40;;
22080;SDS011;11207;59.512;18.050;2022-11-15T15:35:05;9.53;;;2.83;;
22080;SDS011;11207;59.512;18.050;2022-11-15T15:37:30;2.60;;;2.40;;
22080;SDS011;11207;59.512;18.050;2022-11-15T15:39:58;5.53;;;2.40;;
22080;SDS011;11207;59.512;18.050;2022-11-15T15:42:24;4.50;;;2.83;;
22080;SDS011;11207;59.512;18.050;2022-11-15T15:44:50;2.87;;;2.30;;
22080;SDS011;11207;59.512;18.050;2022-11-15T15:47:17;3.13;;;2.30;;
22080;SDS011;11207;59.512;18.050;2022-11-15T15:49:44;2.83;;;2.27;;
22080;SDS011;11207;59.512;18.050;2022-11-15T15:52:10;2.77;;;2.27;;
22080;SDS011;11207;59.512;18.050;2022-11-15T15:54:36;3.00;;;2.40;;
22080;SDS011;11207;59.512;18.050;2022-11-15T15:57:04;5.97;;;2.70;;
22080;SDS011;11207;59.512;18.050;2022-11-15T15:59:31;2.83;;;2.30;;
22080;SDS011;11207;59.512;18.050;2022-11-15T16:01:57;2.80;;;2.40;;
22080;SDS011;11207;59.512;18.050;2022-11-15T16:04:23;2.83;;;2.63;;
22080;SDS011;11207;59.512;18.050;2022-11-15T16:06:49;3.47;;;2.70;;
22080;SDS011;11207;59.512;18.050;2022-11-15T16:09:18;4.13;;;2.50;;
22080;SDS011;11207;59.512;18.050;2022-11-15T16:12:04;2.77;;;2.57;;
22080;SDS011;11207;59.512;18.050;2022-11-15T16:14:30;3.00;;;2.67;;
22080;SDS011;11207;59.512;18.050;2022-11-15T16:16:57;3.37;;;2.80;;
22080;SDS011;11207;59.512;18.050;2022-11-15T16:19:22;3.10;;;2.60;;
22080;SDS011;11207;59.512;18.050;2022-11-15T16:21:48;3.07;;;2.47;;
22080;SDS011;11207;59.512;18.050;2022-11-15T16:24:14;2.70;;;2.53;;
22080;SDS011;11207;59.512;18.050;2022-11-15T16:26:44;2.63;;;2.43;;
22080;SDS011;11207;59.512;18.050;2022-11-15T16:29:23;2.80;;;2.60;;
22080;SDS011;11207;59.512;18.050;2022-11-15T16:31:56;3.83;;;2.60;;
22080;SDS011;11207;59.512;18.050;2022-11-15T16:34:22;3.60;;;2.60;;
22080;SDS011;11207;59.512;18.050;2022-11-15T16:36:47;2.73;;;2.33;;
22080;SDS011;11207;59.512;18.050;2022-11-15T16:39:13;2.60;;;2.40;;
22080;SDS011;11207;59.512;18.050;2022-11-15T16:41:42;2.50;;;2.30;;
22080;SDS011;11207;59.512;18.050;2022-11-15T16:44:11;2.87;;;2.23;;
22080;SDS011;11207;59.512;18.050;2022-11-15T16:46:40;3.63;;;2.40;;
22080;SDS011;11207;59.512;18.050;2022-11-15T16:49:11;2.67;;;2.47;;
22080;SDS011;11207;59.512;18.050;2022-11-15T16:51:38;2.40;;;2.20;;
22080;SDS011;11207;59.512;18.050;2022-11-15T16:54:05;2.70;;;2.30;;